createdAt,value
2023-04-04T00:04:32.500Z,117.70
2023-04-04T00:11:34.271Z,114.25
2023-04-04T00:18:36.190Z,111.38
2023-04-04T00:25:37.937Z,111.32
2023-04-04T00:32:39.524Z,106.68
2023-04-04T00:39:41.140Z,105.97
2023-04-04T00:46:42.678Z,102.32
2023-04-04T00:53:44.857Z,102.82
2023-04-04T01:00:46.515Z,106.85
2023-04-04T01:07:49.162Z,107.05
2023-04-04T01:14:51.129Z,107.47
2023-04-04T01:21:52.903Z,113.65
2023-04-04T01:28:55.380Z,113.65
2023-04-04T01:36:10.976Z,116.07
2023-04-04T01:43:13.260Z,119.53
2023-04-04T01:50:17.111Z,125.10
2023-04-04T01:57:18.877Z,125.95
2023-04-04T02:04:21.133Z,132.45
2023-04-04T02:11:23.143Z,139.68
2023-04-04T02:18:25.924Z,136.73
2023-04-04T02:25:27.823Z,137.27
2023-04-04T02:32:29.359Z,148.10
2023-04-04T02:39:31.188Z,168.70
2023-04-04T02:46:34.577Z,123.60
2023-04-04T02:53:40.242Z,145.70
2023-04-04T03:01:06.550Z,137.10
2023-04-04T03:08:12.104Z,133.57
2023-04-04T03:15:14.454Z,128.63
2023-04-04T03:22:16.496Z,119.88
2023-04-04T03:29:18.415Z,114.55
2023-04-04T03:36:21.062Z,110.53
2023-04-04T03:43:24.533Z,110.53
2023-04-04T03:50:26.298Z,102.75
2023-04-04T03:57:28.199Z,100.90
2023-04-04T04:04:29.854Z,95.90
2023-04-04T04:11:31.497Z,95.03
2023-04-04T04:18:34.844Z,87.35
2023-04-04T04:25:37.265Z,89.03
2023-04-04T04:32:51.505Z,84.28
2023-04-04T04:39:57.220Z,90.13
2023-04-04T04:47:09.984Z,93.45
2023-04-04T04:54:11.845Z,83.15
2023-04-04T05:01:15.823Z,77.60
2023-04-04T05:08:17.572Z,71.78
2023-04-04T05:15:41.965Z,65.90
2023-04-04T05:22:44.391Z,44.25
2023-04-04T05:29:48.468Z,40.58
2023-04-04T05:36:51.018Z,39.45
2023-04-04T05:43:52.916Z,37.13
2023-04-04T05:50:58.052Z,36.25
2023-04-04T05:58:13.677Z,31.58
2023-04-04T06:05:23.736Z,33.88
2023-04-04T06:12:25.601Z,37.00
2023-04-04T06:19:28.148Z,42.95
2023-04-04T06:26:30.226Z,47.47
2023-04-04T06:33:32.727Z,61.92
2023-04-04T06:40:35.375Z,82.20
2023-04-04T06:47:37.941Z,93.35
2023-04-04T06:54:40.545Z,72.30
2023-04-04T07:01:43.208Z,69.90
2023-04-04T07:08:44.818Z,62.22
2023-04-04T07:15:50.123Z,51.40
2023-04-04T07:22:51.781Z,41.38
2023-04-04T07:29:53.416Z,46.92
2023-04-04T07:36:55.144Z,35.35
2023-04-04T07:43:56.767Z,33.90
2023-04-04T07:51:00.199Z,4.28
2023-04-04T07:58:01.718Z,6.47
2023-04-04T08:05:03.466Z,11.90
2023-04-04T08:12:07.816Z,4.47
2023-04-04T08:19:09.745Z,13.63
2023-04-04T08:26:11.875Z,14.18
2023-04-04T08:33:13.422Z,23.63
2023-04-04T08:40:15.110Z,20.88
2023-04-04T08:47:16.698Z,36.92
2023-04-04T08:54:18.324Z,41.97
2023-04-04T09:01:20.039Z,25.45
2023-04-04T09:08:23.726Z,19.45
2023-04-04T09:15:25.719Z,5.00
2023-04-04T09:22:27.355Z,5.47
2023-04-04T09:29:28.898Z,5.60
2023-04-04T09:36:31.430Z,8.10
2023-04-04T09:43:34.397Z,3.45
2023-04-04T09:50:37.971Z,2.35
2023-04-04T09:57:40.867Z,1.90
2023-04-04T10:04:43.691Z,2.30
2023-04-04T10:11:47.078Z,2.13
2023-04-04T10:18:48.619Z,1.88
2023-04-04T10:25:50.468Z,2.50
2023-04-04T10:33:02.517Z,2.30
2023-04-04T10:40:11.004Z,2.03
2023-04-04T10:47:17.240Z,2.10
2023-04-04T10:54:18.793Z,1.80
2023-04-04T11:01:22.160Z,1.90
2023-04-04T11:08:26.206Z,2.00
2023-04-04T11:15:27.732Z,1.90
2023-04-04T11:22:29.661Z,1.60
2023-04-04T11:29:50.030Z,1.55
2023-04-04T11:36:52.014Z,1.90
2023-04-04T11:43:53.517Z,1.50
2023-04-04T11:50:55.167Z,1.70
2023-04-04T11:57:59.535Z,1.55
2023-04-04T12:05:01.197Z,1.35
2023-04-04T12:12:03.585Z,1.90
2023-04-04T12:19:05.109Z,1.80
2023-04-04T12:26:07.065Z,1.70
2023-04-04T12:33:09.751Z,1.83
2023-04-04T12:40:11.663Z,1.67
2023-04-04T12:47:15.801Z,1.60
2023-04-04T12:54:31.444Z,1.70
2023-04-04T13:01:33.216Z,1.70
2023-04-04T13:08:34.987Z,2.05
2023-04-04T13:15:52.203Z,1.83
2023-04-04T13:22:58.105Z,2.00
2023-04-04T13:29:59.692Z,1.60
2023-04-04T13:37:01.363Z,1.90
2023-04-04T13:44:02.955Z,1.52
2023-04-04T13:51:04.618Z,2.47
2023-04-04T13:58:06.438Z,1.70
2023-04-04T14:05:08.449Z,1.55
2023-04-04T14:12:10.184Z,1.60
2023-04-04T14:19:11.741Z,1.60
2023-04-04T14:26:13.578Z,1.60
2023-04-04T14:33:15.122Z,1.80
2023-04-04T14:40:16.812Z,1.33
2023-04-04T14:47:18.352Z,1.30
2023-04-04T14:54:19.855Z,1.48
2023-04-04T15:01:22.754Z,2.30
2023-04-04T15:08:24.447Z,1.65
2023-04-04T15:15:29.091Z,2.30
2023-04-04T15:22:30.727Z,1.98
2023-04-04T15:29:32.233Z,1.83
2023-04-04T15:36:34.140Z,1.95
2023-04-04T15:43:36.487Z,2.05
2023-04-04T15:50:38.239Z,2.08
2023-04-04T15:57:40.447Z,2.42
2023-04-04T16:04:41.992Z,1.88
2023-04-04T16:11:43.553Z,2.10
2023-04-04T16:18:45.316Z,2.00
2023-04-04T16:25:47.103Z,2.40
2023-04-04T16:32:49.180Z,3.42
2023-04-04T16:39:51.910Z,2.17
2023-04-04T16:46:53.532Z,1.95
2023-04-04T16:53:56.181Z,3.35
2023-04-04T17:00:57.774Z,1.50
2023-04-04T17:07:59.566Z,1.98
2023-04-04T17:15:01.100Z,2.05
2023-04-04T17:22:03.089Z,1.80
2023-04-04T17:29:04.625Z,1.70
2023-04-04T17:36:06.340Z,2.40
2023-04-04T17:43:07.867Z,2.20
2023-04-04T17:50:09.681Z,2.60
2023-04-04T17:57:11.584Z,2.15
2023-04-04T18:04:13.164Z,2.10
2023-04-04T18:11:14.773Z,2.53
2023-04-04T18:18:16.848Z,1.95
2023-04-04T18:25:18.609Z,2.00
2023-04-04T18:32:25.360Z,7.80
2023-04-04T18:39:27.561Z,2.30
2023-04-04T18:46:29.285Z,2.42
2023-04-04T18:53:30.879Z,3.10
2023-04-04T19:00:32.423Z,2.78
2023-04-04T19:07:34.528Z,3.55
2023-04-04T19:14:36.344Z,3.08
2023-04-04T19:21:37.884Z,2.97
2023-04-04T19:28:39.413Z,5.32
2023-04-04T19:35:48.564Z,23.40
2023-04-04T19:42:50.112Z,14.20
2023-04-04T19:49:51.732Z,3.38
2023-04-04T19:57:06.789Z,3.05
2023-04-04T20:04:09.083Z,3.65
2023-04-04T20:11:11.575Z,3.25
2023-04-04T20:18:23.263Z,3.20
2023-04-04T20:25:40.875Z,3.42
2023-04-04T20:32:43.233Z,3.40
2023-04-04T20:39:54.396Z,2.88
2023-04-04T20:46:55.984Z,3.40
2023-04-04T20:53:59.402Z,3.72
2023-04-04T21:01:01.322Z,6.90
2023-04-04T21:08:03.155Z,36.15
2023-04-04T21:15:06.038Z,46.50
2023-04-04T21:22:07.746Z,60.55
2023-04-04T21:29:21.380Z,50.35
2023-04-04T21:36:27.534Z,56.72
2023-04-04T21:43:29.024Z,4.47
2023-04-04T21:50:30.529Z,3.35
2023-04-04T21:57:32.056Z,4.57
2023-04-04T22:04:33.645Z,7.60
2023-04-04T22:11:38.668Z,41.17
2023-04-04T22:18:42.827Z,42.05
2023-04-04T22:25:44.439Z,69.05
2023-04-04T22:32:46.200Z,77.32
2023-04-04T22:39:51.023Z,79.10
2023-04-04T22:46:52.556Z,80.57
2023-04-04T22:53:57.646Z,100.30
2023-04-04T23:00:59.202Z,34.22
2023-04-04T23:08:02.338Z,32.88
2023-04-04T23:15:05.224Z,37.45
2023-04-04T23:22:07.253Z,33.63
2023-04-04T23:29:09.746Z,28.58
2023-04-04T23:36:11.306Z,26.73
2023-04-04T23:43:12.847Z,26.40
2023-04-04T23:50:14.370Z,24.23
2023-04-04T23:57:16.950Z,24.85
